sensor_id;sensor_type;location;lat;lon;timestamp;P1;durP1;ratioP1;P2;durP2;ratioP2
71629;SDS011;59479;51.902;8.212;2023-07-13T00:00:13;4.50;;;1.50;;
71629;SDS011;59479;51.902;8.212;2023-07-13T00:02:41;5.82;;;1.40;;
71629;SDS011;59479;51.902;8.212;2023-07-13T00:05:07;3.45;;;1.13;;
71629;SDS011;59479;51.902;8.212;2023-07-13T00:07:34;2.95;;;1.10;;
71629;SDS011;59479;51.902;8.212;2023-07-13T00:10:00;5.93;;;1.58;;
71629;SDS011;59479;51.902;8.212;2023-07-13T00:12:35;2.80;;;1.20;;
71629;SDS011;59479;51.902;8.212;2023-07-13T00:15:45;4.05;;;1.40;;
71629;SDS011;59479;51.902;8.212;2023-07-13T00:17:52;3.03;;;1.00;;
71629;SDS011;59479;51.902;8.212;2023-07-13T00:20:19;3.10;;;1.50;;
71629;SDS011;59479;51.902;8.212;2023-07-13T00:22:50;3.38;;;1.25;;
71629;SDS011;59479;51.902;8.212;2023-07-13T00:25:17;4.20;;;1.40;;
71629;SDS011;59479;51.902;8.212;2023-07-13T00:27:43;4.63;;;1.70;;
71629;SDS011;59479;51.902;8.212;2023-07-13T00:30:09;5.10;;;1.30;;
71629;SDS011;59479;51.902;8.212;2023-07-13T00:32:35;3.95;;;1.10;;
71629;SDS011;59479;51.902;8.212;2023-07-13T00:35:01;3.40;;;1.40;;
71629;SDS011;59479;51.902;8.212;2023-07-13T00:37:28;3.33;;;1.10;;
71629;SDS011;59479;51.902;8.212;2023-07-13T00:39:53;4.90;;;1.48;;
71629;SDS011;59479;51.902;8.212;2023-07-13T00:42:19;3.63;;;1.40;;
71629;SDS011;59479;51.902;8.212;2023-07-13T00:45:04;3.27;;;1.20;;
71629;SDS011;59479;51.902;8.212;2023-07-13T00:47:35;4.22;;;1.23;;
71629;SDS011;59479;51.902;8.212;2023-07-13T00:50:01;3.70;;;1.53;;
71629;SDS011;59479;51.902;8.212;2023-07-13T00:52:28;3.42;;;1.35;;
71629;SDS011;59479;51.902;8.212;2023-07-13T00:54:54;4.57;;;1.50;;
71629;SDS011;59479;51.902;8.212;2023-07-13T00:57:20;4.20;;;1.42;;
71629;SDS011;59479;51.902;8.212;2023-07-13T00:59:47;3.10;;;1.45;;
71629;SDS011;59479;51.902;8.212;2023-07-13T01:02:16;3.05;;;1.33;;
71629;SDS011;59479;51.902;8.212;2023-07-13T01:04:42;4.80;;;1.38;;
71629;SDS011;59479;51.902;8.212;2023-07-13T01:07:09;2.95;;;1.08;;
71629;SDS011;59479;51.902;8.212;2023-07-13T01:09:35;3.20;;;1.50;;
71629;SDS011;59479;51.902;8.212;2023-07-13T01:12:00;4.10;;;1.53;;
71629;SDS011;59479;51.902;8.212;2023-07-13T01:14:26;4.45;;;1.50;;
71629;SDS011;59479;51.902;8.212;2023-07-13T01:16:51;4.07;;;1.17;;
71629;SDS011;59479;51.902;8.212;2023-07-13T01:19:36;4.00;;;1.40;;
71629;SDS011;59479;51.902;8.212;2023-07-13T01:22:25;2.92;;;1.00;;
71629;SDS011;59479;51.902;8.212;2023-07-13T01:24:52;6.85;;;1.40;;
71629;SDS011;59479;51.902;8.212;2023-07-13T01:27:22;3.63;;;1.13;;
71629;SDS011;59479;51.902;8.212;2023-07-13T01:29:50;3.13;;;1.40;;
71629;SDS011;59479;51.902;8.212;2023-07-13T01:32:18;4.63;;;1.47;;
71629;SDS011;59479;51.902;8.212;2023-07-13T01:34:49;3.33;;;1.40;;
71629;SDS011;59479;51.902;8.212;2023-07-13T01:37:16;3.88;;;1.45;;
71629;SDS011;59479;51.902;8.212;2023-07-13T01:39:41;9.03;;;1.47;;
71629;SDS011;59479;51.902;8.212;2023-07-13T01:42:07;4.90;;;1.83;;
71629;SDS011;59479;51.902;8.212;2023-07-13T01:44:32;3.37;;;1.50;;
71629;SDS011;59479;51.902;8.212;2023-07-13T01:46:58;3.47;;;1.37;;
71629;SDS011;59479;51.902;8.212;2023-07-13T01:49:23;5.85;;;1.38;;
71629;SDS011;59479;51.902;8.212;2023-07-13T01:51:49;3.23;;;1.57;;
71629;SDS011;59479;51.902;8.212;2023-07-13T01:54:14;8.07;;;1.53;;
71629;SDS011;59479;51.902;8.212;2023-07-13T01:56:39;4.20;;;1.30;;
71629;SDS011;59479;51.902;8.212;2023-07-13T01:59:06;3.72;;;1.30;;
71629;SDS011;59479;51.902;8.212;2023-07-13T02:01:32;4.13;;;1.50;;
71629;SDS011;59479;51.902;8.212;2023-07-13T02:03:57;3.83;;;1.40;;
71629;SDS011;59479;51.902;8.212;2023-07-13T02:06:22;3.87;;;1.50;;
71629;SDS011;59479;51.902;8.212;2023-07-13T02:08:48;4.03;;;1.20;;
71629;SDS011;59479;51.902;8.212;2023-07-13T02:11:14;3.53;;;1.70;;
71629;SDS011;59479;51.902;8.212;2023-07-13T02:13:39;3.90;;;1.50;;
71629;SDS011;59479;51.902;8.212;2023-07-13T02:16:05;4.13;;;1.42;;
71629;SDS011;59479;51.902;8.212;2023-07-13T02:18:31;3.40;;;1.67;;
71629;SDS011;59479;51.902;8.212;2023-07-13T02:20:57;4.20;;;1.00;;
71629;SDS011;59479;51.902;8.212;2023-07-13T02:23:22;3.43;;;1.53;;
71629;SDS011;59479;51.902;8.212;2023-07-13T02:25:47;6.93;;;1.40;;
71629;SDS011;59479;51.902;8.212;2023-07-13T02:28:13;3.40;;;1.50;;
71629;SDS011;59479;51.902;8.212;2023-07-13T02:30:38;3.33;;;1.40;;
71629;SDS011;59479;51.902;8.212;2023-07-13T02:33:04;3.97;;;1.20;;
71629;SDS011;59479;51.902;8.212;2023-07-13T02:35:29;2.60;;;1.17;;
71629;SDS011;59479;51.902;8.212;2023-07-13T02:37:55;2.95;;;1.35;;
71629;SDS011;59479;51.902;8.212;2023-07-13T02:40:21;3.83;;;1.43;;
71629;SDS011;59479;51.902;8.212;2023-07-13T02:42:46;3.27;;;1.40;;
71629;SDS011;59479;51.902;8.212;2023-07-13T02:45:11;6.70;;;1.70;;
71629;SDS011;59479;51.902;8.212;2023-07-13T02:47:39;4.03;;;1.40;;
71629;SDS011;59479;51.902;8.212;2023-07-13T02:50:05;5.25;;;1.35;;
71629;SDS011;59479;51.902;8.212;2023-07-13T02:52:31;4.55;;;1.30;;
71629;SDS011;59479;51.902;8.212;2023-07-13T02:54:56;4.85;;;1.30;;
71629;SDS011;59479;51.902;8.212;2023-07-13T02:57:21;3.30;;;1.40;;
71629;SDS011;59479;51.902;8.212;2023-07-13T02:59:47;4.03;;;1.60;;
71629;SDS011;59479;51.902;8.212;2023-07-13T03:02:12;4.20;;;1.50;;
71629;SDS011;59479;51.902;8.212;2023-07-13T03:04:38;4.22;;;1.48;;
71629;SDS011;59479;51.902;8.212;2023-07-13T03:07:04;3.17;;;1.30;;
71629;SDS011;59479;51.902;8.212;2023-07-13T03:09:30;5.40;;;1.63;;
71629;SDS011;59479;51.902;8.212;2023-07-13T03:11:57;3.92;;;1.50;;
71629;SDS011;59479;51.902;8.212;2023-07-13T03:14:22;4.73;;;1.50;;
71629;SDS011;59479;51.902;8.212;2023-07-13T03:16:48;3.00;;;1.38;;
71629;SDS011;59479;51.902;8.212;2023-07-13T03:19:14;3.42;;;1.30;;
71629;SDS011;59479;51.902;8.212;2023-07-13T03:21:40;4.93;;;1.50;;
71629;SDS011;59479;51.902;8.212;2023-07-13T03:24:05;3.87;;;1.63;;
71629;SDS011;59479;51.902;8.212;2023-07-13T03:26:31;3.67;;;1.30;;
71629;SDS011;59479;51.902;8.212;2023-07-13T03:28:56;3.37;;;1.20;;
71629;SDS011;59479;51.902;8.212;2023-07-13T03:31:24;4.43;;;1.37;;
71629;SDS011;59479;51.902;8.212;2023-07-13T03:33:53;4.80;;;1.27;;
71629;SDS011;59479;51.902;8.212;2023-07-13T03:36:20;4.40;;;1.30;;
71629;SDS011;59479;51.902;8.212;2023-07-13T03:38:52;3.42;;;1.45;;
71629;SDS011;59479;51.902;8.212;2023-07-13T03:41:19;5.05;;;2.30;;
71629;SDS011;59479;51.902;8.212;2023-07-13T03:43:46;4.17;;;1.30;;
71629;SDS011;59479;51.902;8.212;2023-07-13T03:46:13;3.22;;;1.13;;
71629;SDS011;59479;51.902;8.212;2023-07-13T03:48:40;3.80;;;1.60;;
71629;SDS011;59479;51.902;8.212;2023-07-13T03:51:07;4.10;;;1.27;;
71629;SDS011;59479;51.902;8.212;2023-07-13T03:53:33;4.03;;;1.30;;
71629;SDS011;59479;51.902;8.212;2023-07-13T03:55:59;3.58;;;1.23;;
71629;SDS011;59479;51.902;8.212;2023-07-13T04:00:52;3.30;;;1.15;;
71629;SDS011;59479;51.902;8.212;2023-07-13T04:03:17;3.40;;;1.40;;
71629;SDS011;59479;51.902;8.212;2023-07-13T04:05:43;2.90;;;0.90;;
71629;SDS011;59479;51.902;8.212;2023-07-13T04:08:08;4.10;;;1.33;;
71629;SDS011;59479;51.902;8.212;2023-07-13T04:10:33;2.90;;;1.30;;
71629;SDS011;59479;51.902;8.212;2023-07-13T04:12:59;3.17;;;1.50;;
71629;SDS011;59479;51.902;8.212;2023-07-13T04:15:24;4.63;;;1.33;;
71629;SDS011;59479;51.902;8.212;2023-07-13T04:17:49;4.90;;;1.13;;
71629;SDS011;59479;51.902;8.212;2023-07-13T04:20:15;2.88;;;1.02;;
71629;SDS011;59479;51.902;8.212;2023-07-13T04:22:40;4.30;;;1.25;;
71629;SDS011;59479;51.902;8.212;2023-07-13T04:25:05;4.37;;;1.20;;
71629;SDS011;59479;51.902;8.212;2023-07-13T04:27:31;3.10;;;1.10;;
71629;SDS011;59479;51.902;8.212;2023-07-13T04:29:57;2.88;;;1.13;;
71629;SDS011;59479;51.902;8.212;2023-07-13T04:32:22;3.30;;;0.93;;
71629;SDS011;59479;51.902;8.212;2023-07-13T04:34:47;4.40;;;1.30;;
71629;SDS011;59479;51.902;8.212;2023-07-13T04:37:17;3.42;;;1.25;;
71629;SDS011;59479;51.902;8.212;2023-07-13T04:39:42;3.00;;;1.30;;
71629;SDS011;59479;51.902;8.212;2023-07-13T04:42:07;3.00;;;1.10;;
71629;SDS011;59479;51.902;8.212;2023-07-13T04:44:33;3.43;;;1.40;;
71629;SDS011;59479;51.902;8.212;2023-07-13T04:46:58;3.17;;;1.00;;
71629;SDS011;59479;51.902;8.212;2023-07-13T04:49:23;2.85;;;0.98;;
71629;SDS011;59479;51.902;8.212;2023-07-13T04:51:49;3.47;;;1.00;;
71629;SDS011;59479;51.902;8.212;2023-07-13T04:54:14;3.17;;;1.37;;
71629;SDS011;59479;51.902;8.212;2023-07-13T04:56:39;2.70;;;1.03;;
71629;SDS011;59479;51.902;8.212;2023-07-13T04:59:05;3.33;;;1.20;;
71629;SDS011;59479;51.902;8.212;2023-07-13T05:01:30;3.60;;;1.00;;
71629;SDS011;59479;51.902;8.212;2023-07-13T05:03:55;3.90;;;1.23;;
71629;SDS011;59479;51.902;8.212;2023-07-13T05:06:22;2.85;;;1.15;;
71629;SDS011;59479;51.902;8.212;2023-07-13T05:08:48;4.50;;;1.13;;
71629;SDS011;59479;51.902;8.212;2023-07-13T05:11:13;2.87;;;1.10;;
71629;SDS011;59479;51.902;8.212;2023-07-13T05:13:38;3.53;;;1.30;;
71629;SDS011;59479;51.902;8.212;2023-07-13T05:16:04;4.47;;;1.17;;
71629;SDS011;59479;51.902;8.212;2023-07-13T05:18:33;5.10;;;1.40;;
71629;SDS011;59479;51.902;8.212;2023-07-13T05:21:03;4.32;;;1.20;;
71629;SDS011;59479;51.902;8.212;2023-07-13T05:23:31;3.03;;;1.10;;
71629;SDS011;59479;51.902;8.212;2023-07-13T05:25:58;4.20;;;1.30;;
71629;SDS011;59479;51.902;8.212;2023-07-13T05:28:23;5.78;;;1.65;;
71629;SDS011;59479;51.902;8.212;2023-07-13T05:30:49;3.00;;;1.10;;
71629;SDS011;59479;51.902;8.212;2023-07-13T05:33:15;9.53;;;1.40;;
71629;SDS011;59479;51.902;8.212;2023-07-13T05:35:40;2.63;;;0.98;;
71629;SDS011;59479;51.902;8.212;2023-07-13T05:38:06;3.03;;;1.43;;
71629;SDS011;59479;51.902;8.212;2023-07-13T05:40:31;4.07;;;1.42;;
71629;SDS011;59479;51.902;8.212;2023-07-13T05:42:57;2.87;;;1.00;;
71629;SDS011;59479;51.902;8.212;2023-07-13T05:45:22;4.40;;;1.40;;
71629;SDS011;59479;51.902;8.212;2023-07-13T05:47:47;3.77;;;1.10;;
71629;SDS011;59479;51.902;8.212;2023-07-13T05:50:13;2.90;;;1.17;;
71629;SDS011;59479;51.902;8.212;2023-07-13T05:52:38;2.50;;;1.00;;
71629;SDS011;59479;51.902;8.212;2023-07-13T05:55:03;3.00;;;1.13;;
71629;SDS011;59479;51.902;8.212;2023-07-13T05:57:30;2.47;;;1.00;;
71629;SDS011;59479;51.902;8.212;2023-07-13T05:59:55;3.30;;;1.45;;
71629;SDS011;59479;51.902;8.212;2023-07-13T06:02:21;5.67;;;0.93;;
71629;SDS011;59479;51.902;8.212;2023-07-13T06:04:46;3.97;;;1.40;;
71629;SDS011;59479;51.902;8.212;2023-07-13T06:07:11;3.27;;;1.30;;
71629;SDS011;59479;51.902;8.212;2023-07-13T06:09:37;3.57;;;1.40;;
71629;SDS011;59479;51.902;8.212;2023-07-13T06:12:03;4.03;;;1.45;;
71629;SDS011;59479;51.902;8.212;2023-07-13T06:14:29;2.88;;;0.90;;
71629;SDS011;59479;51.902;8.212;2023-07-13T06:16:54;2.60;;;0.90;;
71629;SDS011;59479;51.902;8.212;2023-07-13T06:19:19;3.77;;;1.63;;
71629;SDS011;59479;51.902;8.212;2023-07-13T06:21:44;5.27;;;1.03;;
71629;SDS011;59479;51.902;8.212;2023-07-13T06:24:10;4.83;;;1.33;;
71629;SDS011;59479;51.902;8.212;2023-07-13T06:26:35;3.23;;;1.13;;
71629;SDS011;59479;51.902;8.212;2023-07-13T06:29:00;3.07;;;1.23;;
71629;SDS011;59479;51.902;8.212;2023-07-13T06:31:26;5.43;;;1.63;;
71629;SDS011;59479;51.902;8.212;2023-07-13T06:33:51;4.88;;;1.35;;
71629;SDS011;59479;51.902;8.212;2023-07-13T06:36:16;7.00;;;1.48;;
71629;SDS011;59479;51.902;8.212;2023-07-13T06:38:42;3.43;;;1.13;;
71629;SDS011;59479;51.902;8.212;2023-07-13T06:41:07;2.97;;;1.40;;
71629;SDS011;59479;51.902;8.212;2023-07-13T06:43:33;3.50;;;1.30;;
71629;SDS011;59479;51.902;8.212;2023-07-13T06:45:58;6.47;;;1.50;;
71629;SDS011;59479;51.902;8.212;2023-07-13T06:48:24;4.82;;;1.27;;
71629;SDS011;59479;51.902;8.212;2023-07-13T06:50:49;3.53;;;1.40;;
71629;SDS011;59479;51.902;8.212;2023-07-13T06:53:16;3.35;;;1.27;;
71629;SDS011;59479;51.902;8.212;2023-07-13T06:55:43;5.03;;;1.60;;
71629;SDS011;59479;51.902;8.212;2023-07-13T06:58:09;6.63;;;1.47;;
71629;SDS011;59479;51.902;8.212;2023-07-13T07:00:34;4.17;;;1.60;;
71629;SDS011;59479;51.902;8.212;2023-07-13T07:02:59;12.30;;;1.83;;
71629;SDS011;59479;51.902;8.212;2023-07-13T07:05:25;4.28;;;1.70;;
71629;SDS011;59479;51.902;8.212;2023-07-13T07:07:50;4.20;;;1.70;;
71629;SDS011;59479;51.902;8.212;2023-07-13T07:10:17;4.55;;;1.80;;
71629;SDS011;59479;51.902;8.212;2023-07-13T07:12:44;5.30;;;1.60;;
71629;SDS011;59479;51.902;8.212;2023-07-13T07:15:09;4.30;;;1.75;;
71629;SDS011;59479;51.902;8.212;2023-07-13T07:17:35;6.90;;;1.50;;
71629;SDS011;59479;51.902;8.212;2023-07-13T07:20:00;7.60;;;1.77;;
71629;SDS011;59479;51.902;8.212;2023-07-13T07:22:25;9.30;;;2.20;;
71629;SDS011;59479;51.902;8.212;2023-07-13T07:24:52;6.13;;;1.70;;
71629;SDS011;59479;51.902;8.212;2023-07-13T07:27:18;5.93;;;1.60;;
71629;SDS011;59479;51.902;8.212;2023-07-13T07:29:43;6.47;;;2.07;;
71629;SDS011;59479;51.902;8.212;2023-07-13T07:32:09;6.80;;;1.87;;
71629;SDS011;59479;51.902;8.212;2023-07-13T07:34:34;5.23;;;2.33;;
71629;SDS011;59479;51.902;8.212;2023-07-13T07:37:00;4.00;;;1.73;;
71629;SDS011;59479;51.902;8.212;2023-07-13T07:39:26;7.03;;;1.80;;
71629;SDS011;59479;51.902;8.212;2023-07-13T07:41:51;9.43;;;2.20;;
71629;SDS011;59479;51.902;8.212;2023-07-13T07:44:16;7.72;;;1.95;;
71629;SDS011;59479;51.902;8.212;2023-07-13T07:46:42;6.68;;;2.22;;
71629;SDS011;59479;51.902;8.212;2023-07-13T07:49:07;6.80;;;1.80;;
71629;SDS011;59479;51.902;8.212;2023-07-13T07:51:33;5.97;;;1.57;;
71629;SDS011;59479;51.902;8.212;2023-07-13T07:53:58;5.27;;;1.80;;
71629;SDS011;59479;51.902;8.212;2023-07-13T07:56:23;4.33;;;1.70;;
71629;SDS011;59479;51.902;8.212;2023-07-13T07:58:49;4.80;;;1.47;;
71629;SDS011;59479;51.902;8.212;2023-07-13T08:01:14;7.80;;;1.83;;
71629;SDS011;59479;51.902;8.212;2023-07-13T08:03:41;6.45;;;1.63;;
71629;SDS011;59479;51.902;8.212;2023-07-13T08:06:06;5.57;;;1.60;;
71629;SDS011;59479;51.902;8.212;2023-07-13T08:08:31;6.70;;;1.77;;
71629;SDS011;59479;51.902;8.212;2023-07-13T08:10:57;5.50;;;1.70;;
71629;SDS011;59479;51.902;8.212;2023-07-13T08:13:22;8.45;;;1.80;;
71629;SDS011;59479;51.902;8.212;2023-07-13T08:15:47;5.83;;;1.53;;
71629;SDS011;59479;51.902;8.212;2023-07-13T08:18:14;5.65;;;1.77;;
71629;SDS011;59479;51.902;8.212;2023-07-13T08:20:40;5.50;;;1.83;;
71629;SDS011;59479;51.902;8.212;2023-07-13T08:23:06;5.60;;;1.98;;
71629;SDS011;59479;51.902;8.212;2023-07-13T08:25:34;4.13;;;1.65;;
71629;SDS011;59479;51.902;8.212;2023-07-13T08:27:59;9.20;;;2.03;;
71629;SDS011;59479;51.902;8.212;2023-07-13T08:30:25;6.63;;;1.83;;
71629;SDS011;59479;51.902;8.212;2023-07-13T08:32:50;4.43;;;1.80;;
71629;SDS011;59479;51.902;8.212;2023-07-13T08:35:15;5.20;;;1.70;;
71629;SDS011;59479;51.902;8.212;2023-07-13T08:37:42;5.00;;;1.75;;
71629;SDS011;59479;51.902;8.212;2023-07-13T08:40:08;7.60;;;2.03;;
71629;SDS011;59479;51.902;8.212;2023-07-13T08:45:08;5.43;;;1.77;;
71629;SDS011;59479;51.902;8.212;2023-07-13T08:48:21;6.18;;;2.00;;
71629;SDS011;59479;51.902;8.212;2023-07-13T08:50:56;6.50;;;2.50;;
71629;SDS011;59479;51.902;8.212;2023-07-13T08:53:26;4.18;;;2.22;;
71629;SDS011;59479;51.902;8.212;2023-07-13T08:55:58;5.13;;;1.90;;
71629;SDS011;59479;51.902;8.212;2023-07-13T08:58:27;4.80;;;2.30;;
71629;SDS011;59479;51.902;8.212;2023-07-13T09:01:10;6.70;;;2.28;;
71629;SDS011;59479;51.902;8.212;2023-07-13T09:04:27;6.18;;;2.47;;
71629;SDS011;59479;51.902;8.212;2023-07-13T09:06:48;6.07;;;2.33;;
71629;SDS011;59479;51.902;8.212;2023-07-13T09:09:23;6.47;;;2.38;;
71629;SDS011;59479;51.902;8.212;2023-07-13T09:12:49;6.05;;;2.40;;
71629;SDS011;59479;51.902;8.212;2023-07-13T09:15:40;4.57;;;2.40;;
71629;SDS011;59479;51.902;8.212;2023-07-13T09:18:13;4.75;;;2.38;;
71629;SDS011;59479;51.902;8.212;2023-07-13T09:20:54;4.63;;;2.08;;
71629;SDS011;59479;51.902;8.212;2023-07-13T09:23:27;4.03;;;2.10;;
71629;SDS011;59479;51.902;8.212;2023-07-13T09:26:02;3.90;;;2.10;;
71629;SDS011;59479;51.902;8.212;2023-07-13T09:28:39;5.60;;;2.35;;
71629;SDS011;59479;51.902;8.212;2023-07-13T09:31:33;6.20;;;2.45;;
71629;SDS011;59479;51.902;8.212;2023-07-13T09:37:05;8.68;;;2.58;;
71629;SDS011;59479;51.902;8.212;2023-07-13T09:39:38;6.90;;;2.20;;
71629;SDS011;59479;51.902;8.212;2023-07-13T09:42:07;4.15;;;2.30;;
71629;SDS011;59479;51.902;8.212;2023-07-13T09:44:51;5.40;;;2.25;;
71629;SDS011;59479;51.902;8.212;2023-07-13T09:47:22;3.58;;;2.42;;
71629;SDS011;59479;51.902;8.212;2023-07-13T09:49:55;5.57;;;2.27;;
71629;SDS011;59479;51.902;8.212;2023-07-13T09:52:38;4.10;;;2.28;;
71629;SDS011;59479;51.902;8.212;2023-07-13T09:55:14;5.13;;;2.42;;
71629;SDS011;59479;51.902;8.212;2023-07-13T09:57:54;8.13;;;3.10;;
71629;SDS011;59479;51.902;8.212;2023-07-13T10:00:20;4.20;;;2.27;;
71629;SDS011;59479;51.902;8.212;2023-07-13T10:03:36;5.72;;;2.17;;
71629;SDS011;59479;51.902;8.212;2023-07-13T10:05:47;5.47;;;2.25;;
71629;SDS011;59479;51.902;8.212;2023-07-13T10:08:19;4.38;;;2.30;;
71629;SDS011;59479;51.902;8.212;2023-07-13T10:10:45;5.85;;;2.58;;
71629;SDS011;59479;51.902;8.212;2023-07-13T10:16:07;7.60;;;2.42;;
71629;SDS011;59479;51.902;8.212;2023-07-13T10:18:50;6.85;;;2.42;;
71629;SDS011;59479;51.902;8.212;2023-07-13T10:21:50;4.57;;;2.22;;
71629;SDS011;59479;51.902;8.212;2023-07-13T10:24:21;5.38;;;2.10;;
71629;SDS011;59479;51.902;8.212;2023-07-13T10:29:29;3.95;;;2.03;;
71629;SDS011;59479;51.902;8.212;2023-07-13T10:31:58;4.38;;;1.75;;
71629;SDS011;59479;51.902;8.212;2023-07-13T10:34:23;4.73;;;2.20;;
71629;SDS011;59479;51.902;8.212;2023-07-13T10:36:49;3.93;;;2.30;;
71629;SDS011;59479;51.902;8.212;2023-07-13T10:39:25;5.22;;;1.70;;
71629;SDS011;59479;51.902;8.212;2023-07-13T10:41:55;3.25;;;1.52;;
71629;SDS011;59479;51.902;8.212;2023-07-13T10:44:27;5.13;;;1.73;;
71629;SDS011;59479;51.902;8.212;2023-07-13T10:49:22;4.95;;;1.70;;
71629;SDS011;59479;51.902;8.212;2023-07-13T10:51:48;7.28;;;1.67;;
71629;SDS011;59479;51.902;8.212;2023-07-13T10:59:37;4.50;;;1.77;;
71629;SDS011;59479;51.902;8.212;2023-07-13T11:04:43;5.70;;;2.10;;
71629;SDS011;59479;51.902;8.212;2023-07-13T11:07:16;4.68;;;2.20;;
71629;SDS011;59479;51.902;8.212;2023-07-13T11:09:52;3.67;;;1.77;;
71629;SDS011;59479;51.902;8.212;2023-07-13T11:20:09;5.22;;;1.90;;
71629;SDS011;59479;51.902;8.212;2023-07-13T11:22:44;6.85;;;2.15;;
71629;SDS011;59479;51.902;8.212;2023-07-13T11:30:43;3.90;;;2.10;;
71629;SDS011;59479;51.902;8.212;2023-07-13T11:33:45;5.03;;;2.30;;
71629;SDS011;59479;51.902;8.212;2023-07-13T11:36:19;4.82;;;1.90;;
71629;SDS011;59479;51.902;8.212;2023-07-13T11:38:55;6.45;;;2.00;;
71629;SDS011;59479;51.902;8.212;2023-07-13T11:42:29;5.25;;;2.35;;
71629;SDS011;59479;51.902;8.212;2023-07-13T11:44:33;4.97;;;2.10;;
71629;SDS011;59479;51.902;8.212;2023-07-13T11:47:08;3.90;;;1.92;;
71629;SDS011;59479;51.902;8.212;2023-07-13T11:49:47;8.35;;;2.20;;
71629;SDS011;59479;51.902;8.212;2023-07-13T11:55:14;4.00;;;1.75;;
71629;SDS011;59479;51.902;8.212;2023-07-13T11:57:47;6.30;;;2.47;;
71629;SDS011;59479;51.902;8.212;2023-07-13T12:00:21;5.65;;;2.00;;
71629;SDS011;59479;51.902;8.212;2023-07-13T12:02:50;5.80;;;2.47;;
71629;SDS011;59479;51.902;8.212;2023-07-13T12:05:18;8.48;;;2.55;;
71629;SDS011;59479;51.902;8.212;2023-07-13T12:07:46;3.67;;;2.33;;
71629;SDS011;59479;51.902;8.212;2023-07-13T12:12:50;4.78;;;2.40;;
71629;SDS011;59479;51.902;8.212;2023-07-13T12:15:32;4.38;;;2.03;;
71629;SDS011;59479;51.902;8.212;2023-07-13T12:18:02;4.22;;;2.17;;
71629;SDS011;59479;51.902;8.212;2023-07-13T12:20:35;4.33;;;2.10;;
71629;SDS011;59479;51.902;8.212;2023-07-13T12:23:04;4.72;;;2.75;;
71629;SDS011;59479;51.902;8.212;2023-07-13T12:25:30;3.60;;;1.67;;
71629;SDS011;59479;51.902;8.212;2023-07-13T12:27:56;4.33;;;1.70;;
71629;SDS011;59479;51.902;8.212;2023-07-13T12:33:11;3.20;;;1.40;;
71629;SDS011;59479;51.902;8.212;2023-07-13T12:35:41;4.15;;;1.80;;
71629;SDS011;59479;51.902;8.212;2023-07-13T12:38:11;3.33;;;1.60;;
71629;SDS011;59479;51.902;8.212;2023-07-13T12:40:37;5.32;;;1.60;;
71629;SDS011;59479;51.902;8.212;2023-07-13T12:43:05;3.88;;;1.77;;
71629;SDS011;59479;51.902;8.212;2023-07-13T12:45:54;4.45;;;2.05;;
71629;SDS011;59479;51.902;8.212;2023-07-13T12:48:23;5.00;;;1.77;;
71629;SDS011;59479;51.902;8.212;2023-07-13T12:50:50;3.35;;;1.70;;
71629;SDS011;59479;51.902;8.212;2023-07-13T12:53:21;5.57;;;1.70;;
71629;SDS011;59479;51.902;8.212;2023-07-13T12:55:49;3.53;;;1.80;;
71629;SDS011;59479;51.902;8.212;2023-07-13T12:58:21;3.85;;;1.52;;
71629;SDS011;59479;51.902;8.212;2023-07-13T13:01:08;4.43;;;1.77;;
71629;SDS011;59479;51.902;8.212;2023-07-13T13:03:36;3.30;;;1.50;;
71629;SDS011;59479;51.902;8.212;2023-07-13T13:06:05;4.45;;;1.65;;
71629;SDS011;59479;51.902;8.212;2023-07-13T13:08:32;4.88;;;2.03;;
71629;SDS011;59479;51.902;8.212;2023-07-13T13:11:01;6.43;;;2.20;;
71629;SDS011;59479;51.902;8.212;2023-07-13T13:13:27;5.00;;;2.35;;
71629;SDS011;59479;51.902;8.212;2023-07-13T13:15:53;6.28;;;2.20;;
71629;SDS011;59479;51.902;8.212;2023-07-13T13:18:19;4.70;;;2.30;;
71629;SDS011;59479;51.902;8.212;2023-07-13T13:20:47;4.20;;;1.73;;
71629;SDS011;59479;51.902;8.212;2023-07-13T13:23:13;4.47;;;2.03;;
71629;SDS011;59479;51.902;8.212;2023-07-13T13:25:43;6.57;;;1.70;;
71629;SDS011;59479;51.902;8.212;2023-07-13T13:28:14;4.82;;;2.33;;
71629;SDS011;59479;51.902;8.212;2023-07-13T13:30:42;4.35;;;1.95;;
71629;SDS011;59479;51.902;8.212;2023-07-13T13:33:12;4.30;;;1.75;;
71629;SDS011;59479;51.902;8.212;2023-07-13T13:35:40;3.63;;;1.75;;
71629;SDS011;59479;51.902;8.212;2023-07-13T13:38:12;4.70;;;1.83;;
71629;SDS011;59479;51.902;8.212;2023-07-13T13:40:39;4.32;;;1.83;;
71629;SDS011;59479;51.902;8.212;2023-07-13T13:43:16;5.47;;;2.03;;
71629;SDS011;59479;51.902;8.212;2023-07-13T13:45:43;4.45;;;1.60;;
71629;SDS011;59479;51.902;8.212;2023-07-13T13:48:17;3.47;;;1.50;;
71629;SDS011;59479;51.902;8.212;2023-07-13T13:50:52;3.83;;;1.70;;
71629;SDS011;59479;51.902;8.212;2023-07-13T13:53:18;4.28;;;1.80;;
71629;SDS011;59479;51.902;8.212;2023-07-13T13:55:43;6.33;;;2.00;;
71629;SDS011;59479;51.902;8.212;2023-07-13T13:58:09;6.50;;;2.27;;
71629;SDS011;59479;51.902;8.212;2023-07-13T14:00:35;4.80;;;2.08;;
71629;SDS011;59479;51.902;8.212;2023-07-13T14:03:02;3.63;;;1.35;;
71629;SDS011;59479;51.902;8.212;2023-07-13T14:05:28;4.03;;;1.60;;
71629;SDS011;59479;51.902;8.212;2023-07-13T14:07:55;3.60;;;1.83;;
71629;SDS011;59479;51.902;8.212;2023-07-13T14:10:22;3.30;;;1.42;;
71629;SDS011;59479;51.902;8.212;2023-07-13T14:12:52;4.05;;;2.10;;
71629;SDS011;59479;51.902;8.212;2023-07-13T14:15:23;4.72;;;1.55;;
71629;SDS011;59479;51.902;8.212;2023-07-13T14:17:51;4.78;;;1.92;;
71629;SDS011;59479;51.902;8.212;2023-07-13T14:20:17;3.47;;;1.70;;
71629;SDS011;59479;51.902;8.212;2023-07-13T14:22:44;5.38;;;1.85;;
71629;SDS011;59479;51.902;8.212;2023-07-13T14:25:11;4.18;;;1.83;;
71629;SDS011;59479;51.902;8.212;2023-07-13T14:27:38;3.50;;;1.83;;
71629;SDS011;59479;51.902;8.212;2023-07-13T14:30:08;3.72;;;1.90;;
71629;SDS011;59479;51.902;8.212;2023-07-13T14:32:40;8.52;;;1.88;;
71629;SDS011;59479;51.902;8.212;2023-07-13T14:35:05;3.67;;;1.53;;
71629;SDS011;59479;51.902;8.212;2023-07-13T14:37:32;4.03;;;1.70;;
71629;SDS011;59479;51.902;8.212;2023-07-13T14:39:57;3.33;;;1.30;;
71629;SDS011;59479;51.902;8.212;2023-07-13T14:42:23;10.03;;;1.70;;
71629;SDS011;59479;51.902;8.212;2023-07-13T14:44:48;3.70;;;1.20;;
71629;SDS011;59479;51.902;8.212;2023-07-13T14:47:17;4.33;;;1.57;;
71629;SDS011;59479;51.902;8.212;2023-07-13T14:49:43;4.00;;;1.70;;
71629;SDS011;59479;51.902;8.212;2023-07-13T14:52:17;4.00;;;1.48;;
71629;SDS011;59479;51.902;8.212;2023-07-13T14:54:51;5.97;;;1.50;;
71629;SDS011;59479;51.902;8.212;2023-07-13T14:57:17;3.72;;;1.60;;
71629;SDS011;59479;51.902;8.212;2023-07-13T14:59:46;4.50;;;1.80;;
71629;SDS011;59479;51.902;8.212;2023-07-13T15:04:42;3.20;;;1.50;;
71629;SDS011;59479;51.902;8.212;2023-07-13T15:07:09;5.22;;;1.60;;
71629;SDS011;59479;51.902;8.212;2023-07-13T15:09:37;3.45;;;1.58;;
71629;SDS011;59479;51.902;8.212;2023-07-13T15:12:02;3.63;;;1.48;;
71629;SDS011;59479;51.902;8.212;2023-07-13T15:14:30;3.05;;;1.40;;
71629;SDS011;59479;51.902;8.212;2023-07-13T15:16:55;3.90;;;1.67;;
71629;SDS011;59479;51.902;8.212;2023-07-13T15:19:21;3.23;;;1.40;;
71629;SDS011;59479;51.902;8.212;2023-07-13T15:21:48;3.88;;;1.40;;
71629;SDS011;59479;51.902;8.212;2023-07-13T15:24:18;4.72;;;2.08;;
71629;SDS011;59479;51.902;8.212;2023-07-13T15:26:46;3.77;;;1.60;;
71629;SDS011;59479;51.902;8.212;2023-07-13T15:29:14;3.85;;;1.48;;
71629;SDS011;59479;51.902;8.212;2023-07-13T15:31:41;3.05;;;1.30;;
71629;SDS011;59479;51.902;8.212;2023-07-13T15:34:14;3.15;;;1.42;;
71629;SDS011;59479;51.902;8.212;2023-07-13T15:36:42;2.80;;;1.23;;
71629;SDS011;59479;51.902;8.212;2023-07-13T15:39:14;3.10;;;1.37;;
71629;SDS011;59479;51.902;8.212;2023-07-13T15:41:44;3.45;;;1.45;;
71629;SDS011;59479;51.902;8.212;2023-07-13T15:44:20;3.33;;;1.38;;